UNR Ag. Experiment Farm, Sparks, Nevada Weather observations

Data are for 10 minute period ending at time listed.
 Day   Time   Solar   Ave.   Ave.  Ave.  Vector  Max.   Baro.   Total    
  of    of     Rad.   Air    Rel.  Wind   Wind   Wind  Press.  Precip.   
Year   Day            Temp.  Hum.  Speed  Dir.   Gust                    
2016   (PST)  Kw/m2    F      %     mph   deg.    mph    mb.     in.     
-------------------------------------------------------------------------
  37   13:20   0.51   48.3    52    1.8   306     3.3   876.3    0.00 
  37   13:30   0.36   48.5    50    1.4   351     2.8   876.1    0.00 
  37   13:40   0.30   48.5    47    1.5   332     3.4   876.1    0.00 
  37   13:50   0.34   48.1    49    1.8   342     3.7   876.0    0.00 
  37   14:00   0.28   50.2    45    0.1    30     0.9   875.8    0.00 
  37   14:10   0.22   50.1    43    1.1   277     1.9   875.7    0.00 
  37   14:20   0.21   48.3    50    2.3   308     3.4   875.8    0.00 
  37   14:30   0.19   47.8    53    1.9   322     2.8   875.8    0.00 
  37   14:40   0.17   48.2    51    1.1   355     2.4   875.8    0.00 
  37   14:50   0.31   49.4    47    0.8   357     1.8   875.8    0.00 
  37   15:00   0.38   51.0    39    0.7     7     2.1   875.8    0.00 
  37   15:10   0.35   51.9    36    1.1   322     1.9   875.8    0.00 
  37   15:20   0.34   51.8    39    1.0   304     2.0   876.0    0.00 
  37   15:30   0.31   53.5    38    0.9   202     1.5   876.1    0.00 
  37   15:40   0.26   53.7    37    0.4   356     1.2   876.1    0.00 
  37   15:50   0.25   53.3    38    0.9   222     2.1   876.1    0.00 
  37   16:00   0.23   53.0    39    0.9   290     1.5   876.0    0.00 
  37   16:10   0.22   51.9    41    1.3   307     2.5   876.0    0.00 
  37   16:20   0.20   51.7    45    1.6   356     2.3   876.0    0.00 
  37   16:30   0.18   51.8    46    1.0    10     1.6   876.0    0.00 
  37   16:40   0.15   52.9    42    0.1     0     0.8   876.0    0.00 
  37   16:50   0.10   53.3    39    0.1    37     0.5   875.9    0.00 
  37   17:00   0.06   52.0    44    0.2    87     1.2   875.7    0.00 
  37   17:10   0.02   50.1    48    0.2   168     1.0   875.7    0.00 
  37   17:20   0.01   48.1    51    0.3   160     1.2   875.6    0.00 
  37   17:30   0.00   46.2    54    0.3   111     1.1   875.6    0.00 
  37   17:40   0.00   44.4    59    3.1    66     4.6   875.7    0.00 
  37   17:50   0.00   44.2    62    2.8    80     3.1   875.7    0.00 
  37   18:00   0.00   43.7    62    1.5   115     3.3   875.8    0.00 
  37   18:10   0.00   40.7    69    1.6   197     2.2   876.0    0.00 
  37   18:20   0.00   41.6    65    2.6   171     3.3   876.1    0.00 
  37   18:30   0.00   41.7    63    4.1   190     5.0   876.1    0.00 
  37   18:40   0.00   39.6    69    3.1   241     4.7   876.3    0.00 
  37   18:50   0.00   38.2    72    3.5   340     5.3   876.5    0.00 
  37   19:00   0.00   40.6    62    3.5   293     5.0   876.6    0.00 
  37   19:10   0.00   40.9    59    2.5   224     2.8   876.6    0.00 
  37   19:20   0.00   39.8    61    2.2   220     2.8   876.5    0.00 
  37   19:30   0.00   37.2    71    1.8   188     2.6   876.7    0.00 
  37   19:40   0.00   36.4    74    3.2   166     4.0   876.7    0.00 
  37   19:50   0.00   34.8    79    2.7   180     3.7   876.7    0.00 
  37   20:00   0.00   34.7    79    1.8   166     2.8   876.9    0.00 
  37   20:10   0.00   35.1    78    2.7   185     3.5   877.1    0.00 
  37   20:20   0.00   34.7    80    2.8   139     3.5   877.2    0.00 
  37   20:30   0.00   34.6    82    3.2   140     3.7   877.4    0.00 
  37   20:40   0.00   35.3    81    2.5   156     3.0   877.5    0.00 
  37   20:50   0.00   34.9    80    2.8   193     3.4   877.5    0.00 
  37   21:00   0.00   33.0    83    2.1   198     2.9   877.5    0.00 
  37   21:10   0.00   32.6    85    1.8   188     2.6   877.5    0.00 
  37   21:20   0.00   32.9    86    1.2   194     2.2   877.6    0.00 
  37   21:30   0.00   33.8    86    1.2   266     2.9   877.7    0.00 
  37   21:40   0.00   33.7    81    2.5   133     4.8   877.8    0.00 
  37   21:50   0.00   32.7    87    1.3   143     2.1   877.8    0.00 
  37   22:00   0.00   32.7    85    0.1   143     0.9   877.9    0.00 
  37   22:10   0.00   31.4    86    0.0     0     0.0   877.9    0.00 
  37   22:20   0.00   31.7    88    1.1   126     2.9   877.8    0.00 
  37   22:30   0.00   30.8    89    0.3   305     1.9   877.9    0.00 
  37   22:40   0.00   30.2    89    0.3   306     0.9   878.0    0.00 
  37   22:50   0.00   30.6    91    1.0   194     1.8   877.9    0.00 
  37   23:00   0.00   30.2    90    1.6   188     2.6   878.0    0.00 
  37   23:10   0.00   30.4    92    1.2   205     2.2   878.1    0.00 
  37   23:20   0.00   31.1    91    0.6    81     3.5   878.1    0.00 
  37   23:30   0.00   29.2    91    0.9    82     2.6   878.2    0.00 
  37   23:40   0.00   29.2    92    1.8   263     3.0   878.2    0.00 
  37   23:50   0.00   28.2    92    0.7   333     2.0   878.4    0.00 
  38    0:00   0.00   28.5    93    2.6   114     4.0   878.4    0.00 
  38    0:10   0.00   28.5    93    1.3   144     2.9   878.5    0.00 
  38    0:20   0.00   27.9    93    3.3   282     4.4   878.7    0.00 
  38    0:30   0.00   29.2    93    1.6   190     5.3   878.7    0.00 
  38    0:40   0.00   27.9    92    2.6   120     5.0   878.6    0.00 
  38    0:50   0.00   28.1    93    3.1   260     5.6   878.6    0.00 
  38    1:00   0.00   27.8    93    3.6   278     5.3   878.6    0.00 
  38    1:10   0.00   28.0    92    1.8   105     3.3   878.6    0.00 
  38    1:20   0.00   27.5    92    1.4   106     3.2   878.6    0.00 
  38    1:30   0.00   28.4    92    0.5   162     1.8   878.6    0.00 
  38    1:40   0.00   28.5    92    0.9   143     3.3   878.5    0.00 
  38    1:50   0.00   27.9    92    1.1   273     2.6   878.4    0.00 
  38    2:00   0.00   27.7    92    2.7   310     3.1   878.6    0.00 
  38    2:10   0.00   26.8    92    4.0   356     5.0   878.8    0.00 
  38    2:20   0.00   27.5    92    3.2    24     4.0   879.1    0.00 
  38    2:30   0.00   26.8    92    3.7    60     4.4   879.2    0.00 
  38    2:40   0.00   28.0    92    2.4    70     3.7   879.3    0.00 
  38    2:50   0.00   27.7    91    2.5   170     4.2   879.1    0.00 
  38    3:00   0.00   26.7    92    4.4   202     5.3   879.0    0.00 
  38    3:10   0.00   26.7    93    4.6   190     5.3   878.9    0.00 
  38    3:20   0.00   27.3    93    3.9   202     5.2   878.8    0.00 
  38    3:30   0.00   29.0    91    4.0   196     6.4   878.8    0.00 
  38    3:40   0.00   29.0    89    2.8   202     5.0   878.9    0.00 
  38    3:50   0.00   28.4    89    1.8   302     3.1   879.1    0.00 
  38    4:00   0.00   28.1    88    2.1    17     3.3   879.1    0.00 
  38    4:10   0.00   27.5    90    3.3    38     4.2   879.3    0.00 
  38    4:20   0.00   27.9    90    2.2    34     4.1   879.3    0.00 
  38    4:30   0.00   26.9    88    1.4   185     2.9   879.4    0.00 
  38    4:40   0.00   25.7    90    1.6   201     2.3   879.5    0.00 
  38    4:50   0.00   26.2    91    0.9   177     1.8   879.6    0.00 
  38    5:00   0.00   26.2    92    0.2   174     1.3   879.6    0.00 
  38    5:10   0.00   26.8    92    2.4   155     3.1   879.6    0.00 
  38    5:20   0.00   26.7    92    1.4   261     2.8   879.6    0.00 
  38    5:30   0.00   26.1    92    1.3   308     2.7   879.8    0.00 
  38    5:40   0.00   25.6    93    1.9    18     3.5   879.9    0.00 
  38    5:50   0.00   25.3    94    1.4   140     2.9   879.9    0.00 
  38    6:00   0.00   26.0    94    0.3   145     1.0   880.0    0.00 
  38    6:10   0.00   25.6    94    0.5   304     2.0   880.2    0.00 
  38    6:20   0.00   24.5    94    0.1   298     0.4   880.4    0.00 
  38    6:30   0.00   24.9    94    1.1   145     2.6   880.4    0.00 
  38    6:40   0.00   24.6    94    1.6   185     2.3   880.4    0.00 
  38    6:50   0.00   25.0    95    1.6   194     2.3   880.5    0.00 
  38    7:00   0.00   25.0    95    1.6   258     2.7   880.6    0.00 
  38    7:10   0.00   25.1    95    0.0     0     0.0   880.8    0.00 
  38    7:20   0.01   25.2    95    0.0     0     0.0   880.9    0.00 
  38    7:30   0.01   24.6    94    0.4    90     2.7   880.9    0.00 
  38    7:40   0.06   25.4    95    0.4    90     1.9   880.9    0.00 
  38    7:50   0.09   26.7    95    0.1    81     0.5   881.0    0.00 
  38    8:00   0.11   28.6    95    1.0    82     1.9   881.1    0.00 
  38    8:10   0.13   30.2    93    0.6   135     1.6   881.2    0.00 
  38    8:20   0.15   30.4    91    0.7   185     1.7   881.2    0.00 
  38    8:30   0.18   30.9    90    0.2   225     1.1   881.2    0.00 
  38    8:40   0.23   31.2    89    0.8   280     1.2   881.1    0.00 
  38    8:50   0.25   32.6    88    0.2   240     0.9   881.0    0.00 
  38    9:00   0.27   33.5    86    0.7   340     2.0   881.0    0.00 
  38    9:10   0.29   34.8    83    1.1    29     2.2   880.9    0.00 
  38    9:20   0.31   35.3    79    2.9    32     5.0   880.9    0.00 
  38    9:30   0.33   35.0    77    5.3    30     7.7   881.1    0.00 
  38    9:40   0.35   35.5    75    6.9    13     8.6   881.4    0.00 
  38    9:50   0.36   36.6    74    4.8    30     7.2   881.4    0.00 
  38   10:00   0.39   38.4    70    4.5    37     6.9   881.5    0.00 
  38   10:10   0.40   38.9    67    3.7    18     5.3   881.5    0.00 
  38   10:20   0.42   39.6    65    3.1   349     5.5   881.4    0.00 
  38   10:30   0.44   40.6    63    2.2   277     4.3   881.3    0.00 
  38   10:40   0.46   41.1    63    3.0   254     4.2   881.3    0.00 
  38   10:50   0.47   42.7    60    1.9   222     3.8   881.3    0.00 
  38   11:00   0.49   43.8    57    1.0   213     2.9   881.2    0.00 
  38   11:10   0.50   44.6    56    2.6   195     5.5   881.0    0.00 
  38   11:20   0.51   44.3    58    3.0   184     5.8   880.8    0.00 
  38   11:30   0.52   45.2    56    2.3   197     4.8   880.6    0.00 
  38   11:40   0.53   45.4    56    2.6   283     4.0   880.5    0.00 
  38   11:50   0.54   45.6    56    3.2   295     6.0   880.5    0.00 
  38   12:00   0.54   46.0    54    2.1   319     4.9   880.4    0.00 
  38   12:10   0.54   47.0    53    2.0     8     4.4   880.2    0.00 
  38   12:20   0.55   47.6    52    2.1   356     4.4   880.1    0.00 
  38   12:30   0.55   48.2    52    1.8   346     3.9   879.9    0.00 
  38   12:40   0.55   48.5    52    2.0   315     3.7   879.8    0.00 
  38   12:50   0.55   50.2    49    1.3   307     3.1   879.4    0.00 
  38   13:00   0.54   49.6    51    2.8   294     4.7   879.3    0.00 
  38   13:10   0.54   50.2    48    1.7   316     3.6   879.1    0.00 

Return to Sparks, Nevada, UNR Ag Experiment Farm graphs page.


Western Regional Climate Center,wrcc@dri.edu